createdAt,value
2018-03-04T00:00:00.244Z,35.63
2018-03-04T00:01:02.774Z,43.25
2018-03-04T00:02:05.330Z,46.72
2018-03-04T00:03:07.858Z,44.83
2018-03-04T00:04:10.370Z,46.65
2018-03-04T00:05:12.909Z,47.05
2018-03-04T00:06:15.452Z,44.50
2018-03-04T00:07:17.965Z,45.80
2018-03-04T00:08:20.486Z,44.72
2018-03-04T00:09:23.007Z,47.40
2018-03-04T00:10:25.534Z,44.95
2018-03-04T00:11:28.070Z,46.00
2018-03-04T00:12:30.586Z,49.05
2018-03-04T00:13:33.110Z,46.67
2018-03-04T00:14:35.630Z,48.28
2018-03-04T00:15:38.150Z,46.25
2018-03-04T00:16:40.690Z,48.17
2018-03-04T00:17:43.231Z,47.62
2018-03-04T00:18:45.772Z,46.45
2018-03-04T00:19:48.291Z,47.28
2018-03-04T00:20:50.822Z,43.83
2018-03-04T00:21:53.354Z,46.33
2018-03-04T00:22:55.865Z,45.70
2018-03-04T00:23:58.406Z,45.70
2018-03-04T00:25:00.937Z,46.95
2018-03-04T00:26:03.484Z,46.42
2018-03-04T00:27:06.027Z,48.35
2018-03-04T00:28:08.600Z,48.30
2018-03-04T00:29:11.155Z,44.40
2018-03-04T00:30:13.721Z,40.42
2018-03-04T00:31:16.234Z,39.65
2018-03-04T00:32:18.773Z,46.33
2018-03-04T00:33:21.310Z,48.75
2018-03-04T00:34:23.844Z,47.30
2018-03-04T00:35:26.414Z,49.67
2018-03-04T00:36:28.934Z,48.20
2018-03-04T00:37:31.450Z,46.05
2018-03-04T00:38:33.994Z,49.30
2018-03-04T00:39:36.526Z,41.00
2018-03-04T00:40:39.061Z,47.70
2018-03-04T00:41:41.586Z,47.40
2018-03-04T00:42:44.130Z,48.80
2018-03-04T00:43:46.676Z,46.10
2018-03-04T00:44:49.204Z,48.45
2018-03-04T00:45:51.740Z,47.05
2018-03-04T00:46:54.272Z,47.97
2018-03-04T00:47:56.801Z,48.00
2018-03-04T00:48:59.322Z,50.08
2018-03-04T00:50:01.838Z,48.72
2018-03-04T00:51:04.381Z,47.53
2018-03-04T00:52:06.910Z,47.58
2018-03-04T00:53:09.449Z,47.20
2018-03-04T00:54:11.994Z,47.38
2018-03-04T00:55:14.568Z,49.35
2018-03-04T00:56:17.154Z,50.45
2018-03-04T00:57:19.674Z,47.53
2018-03-04T00:58:22.185Z,49.55
2018-03-04T00:59:24.725Z,47.65
2018-03-04T01:00:27.276Z,50.40
2018-03-04T01:01:29.802Z,47.83
2018-03-04T01:02:32.318Z,48.45
2018-03-04T01:03:34.851Z,51.08
2018-03-04T01:04:37.405Z,50.80
2018-03-04T01:05:39.917Z,48.72
2018-03-04T01:06:42.452Z,50.25
2018-03-04T01:07:44.971Z,46.90
2018-03-04T01:08:47.507Z,50.50
2018-03-04T01:09:50.036Z,45.80
2018-03-04T01:10:52.558Z,48.33
2018-03-04T01:11:55.097Z,52.35
2018-03-04T01:12:57.633Z,46.97
2018-03-04T01:14:00.169Z,50.65
2018-03-04T01:15:02.703Z,54.53
2018-03-04T01:16:05.240Z,47.05
2018-03-04T01:17:07.772Z,49.65
2018-03-04T01:18:10.291Z,49.08
2018-03-04T01:19:12.805Z,46.70
2018-03-04T01:20:15.340Z,47.97
2018-03-04T01:21:17.868Z,47.88
2018-03-04T01:22:20.382Z,51.37
2018-03-04T01:23:22.923Z,51.10
2018-03-04T01:24:25.532Z,48.45
2018-03-04T01:25:28.034Z,48.15
2018-03-04T01:26:30.567Z,52.47
2018-03-04T01:27:33.088Z,47.25
2018-03-04T01:28:35.605Z,49.40
2018-03-04T01:29:38.132Z,51.53
2018-03-04T01:30:40.692Z,49.80
2018-03-04T01:31:43.214Z,48.92
2018-03-04T01:32:45.739Z,51.45
2018-03-04T01:33:48.283Z,43.13
2018-03-04T01:34:50.835Z,48.40
2018-03-04T01:35:53.366Z,45.33
2018-03-04T01:36:55.886Z,49.03
2018-03-04T01:37:58.415Z,51.20
2018-03-04T01:39:00.926Z,50.97
2018-03-04T01:40:03.445Z,49.53
2018-03-04T01:41:05.989Z,50.67
2018-03-04T01:42:08.521Z,49.72
2018-03-04T01:43:11.056Z,49.15
2018-03-04T01:44:13.587Z,49.50
2018-03-04T01:45:16.128Z,52.35
2018-03-04T01:46:18.684Z,52.00
2018-03-04T01:47:21.216Z,51.05
2018-03-04T01:48:23.750Z,52.90
2018-03-04T01:49:26.280Z,51.50
2018-03-04T01:50:28.798Z,52.42
2018-03-04T01:51:43.083Z,50.15
2018-03-04T01:52:45.631Z,46.05
2018-03-04T01:53:48.186Z,51.05
2018-03-04T01:54:50.707Z,50.65
2018-03-04T01:55:53.235Z,50.53
2018-03-04T01:56:55.773Z,49.97
2018-03-04T01:57:58.308Z,48.17
2018-03-04T01:59:00.899Z,49.75
2018-03-04T02:00:03.436Z,51.42
2018-03-04T02:01:05.967Z,51.47
2018-03-04T02:02:08.507Z,51.30
2018-03-04T02:03:11.023Z,48.67
2018-03-04T02:04:13.568Z,52.60
2018-03-04T02:05:16.082Z,49.17
2018-03-04T02:06:18.598Z,51.72
2018-03-04T02:07:21.224Z,50.17
2018-03-04T02:08:23.766Z,51.53
2018-03-04T02:09:26.295Z,49.45
2018-03-04T02:10:28.818Z,49.47
2018-03-04T02:11:31.347Z,49.20
2018-03-04T02:12:33.890Z,50.17
2018-03-04T02:13:36.405Z,51.63
2018-03-04T02:14:38.961Z,49.92
2018-03-04T02:15:41.483Z,47.88
2018-03-04T02:16:44.016Z,51.63
2018-03-04T02:17:46.563Z,50.20
2018-03-04T02:18:49.109Z,50.55
2018-03-04T02:19:51.670Z,49.28
2018-03-04T02:20:54.208Z,50.30
2018-03-04T02:21:56.740Z,49.28
2018-03-04T02:22:59.278Z,52.75
2018-03-04T02:24:01.817Z,50.65
2018-03-04T02:25:04.369Z,49.45
2018-03-04T02:26:06.949Z,49.65
2018-03-04T02:27:09.466Z,53.30
2018-03-04T02:28:12.019Z,49.97
2018-03-04T02:29:14.552Z,47.95
2018-03-04T02:30:17.097Z,49.13
2018-03-04T02:31:19.624Z,48.00
2018-03-04T02:32:22.145Z,51.85
2018-03-04T02:33:24.703Z,51.90
2018-03-04T02:34:27.223Z,53.20
2018-03-04T02:35:29.761Z,50.28
2018-03-04T02:36:32.292Z,39.65
2018-03-04T02:37:34.825Z,48.83
2018-03-04T02:38:37.385Z,49.70
2018-03-04T02:39:39.916Z,49.33
2018-03-04T02:40:42.448Z,48.97
2018-03-04T02:41:44.985Z,49.42
2018-03-04T02:42:47.510Z,50.65
2018-03-04T02:43:50.081Z,50.67
2018-03-04T02:44:52.618Z,49.47
2018-03-04T02:45:55.135Z,48.20
2018-03-04T02:46:57.658Z,50.45
2018-03-04T02:48:00.199Z,47.70
2018-03-04T02:49:02.745Z,49.80
2018-03-04T02:50:05.280Z,49.47
2018-03-04T02:51:07.832Z,46.67
2018-03-04T02:52:10.397Z,47.58
2018-03-04T02:53:12.910Z,50.70
2018-03-04T02:54:15.450Z,47.13
2018-03-04T02:55:17.973Z,49.58
2018-03-04T02:56:20.487Z,51.63
2018-03-04T02:57:23.005Z,47.72
2018-03-04T02:58:25.548Z,51.35
2018-03-04T02:59:28.108Z,48.38
2018-03-04T03:00:30.653Z,48.30
2018-03-04T03:01:33.188Z,49.50
2018-03-04T03:02:35.737Z,51.55
2018-03-04T03:03:38.280Z,50.72
2018-03-04T03:04:40.819Z,48.20
2018-03-04T03:05:43.365Z,48.85
2018-03-04T03:06:45.898Z,49.90
2018-03-04T03:07:48.427Z,46.05
2018-03-04T03:08:50.964Z,48.87
2018-03-04T03:09:53.497Z,49.30
2018-03-04T03:10:56.028Z,51.53
2018-03-04T03:11:58.541Z,48.00
2018-03-04T03:13:01.076Z,52.22
2018-03-04T03:14:03.600Z,50.08
2018-03-04T03:15:06.149Z,48.75
2018-03-04T03:16:08.673Z,50.65
2018-03-04T03:17:11.193Z,49.33
2018-03-04T03:18:13.735Z,48.08
2018-03-04T03:19:16.247Z,49.25
2018-03-04T03:20:18.826Z,49.90
2018-03-04T03:21:21.369Z,51.33
2018-03-04T03:22:23.904Z,49.03
2018-03-04T03:23:26.452Z,49.92
2018-03-04T03:24:28.973Z,48.92
2018-03-04T03:25:31.517Z,51.83
2018-03-04T03:26:34.037Z,48.35
2018-03-04T03:27:36.567Z,49.25
2018-03-04T03:28:39.082Z,46.03
2018-03-04T03:29:41.642Z,50.70
2018-03-04T03:30:44.237Z,48.65
2018-03-04T03:31:46.760Z,50.25
2018-03-04T03:32:49.278Z,50.12
2018-03-04T03:33:51.816Z,47.85
2018-03-04T03:34:54.337Z,49.95
2018-03-04T03:35:56.894Z,48.13
2018-03-04T03:36:59.433Z,47.90
2018-03-04T03:38:01.950Z,47.97
2018-03-04T03:39:04.505Z,50.15
2018-03-04T03:40:07.017Z,52.60
2018-03-04T03:41:09.581Z,49.83
2018-03-04T03:42:12.113Z,48.58
2018-03-04T03:43:14.652Z,50.50
2018-03-04T03:44:17.161Z,48.42
2018-03-04T03:45:19.682Z,49.45
2018-03-04T03:46:22.246Z,49.63
2018-03-04T03:47:24.762Z,47.70
2018-03-04T03:48:27.301Z,51.33
2018-03-04T03:49:29.823Z,49.45
2018-03-04T03:50:32.355Z,51.22
2018-03-04T03:51:34.898Z,49.05
2018-03-04T03:52:37.427Z,48.17
2018-03-04T03:53:39.945Z,49.13
2018-03-04T03:54:42.473Z,49.63
2018-03-04T03:55:45.021Z,48.75
2018-03-04T03:56:47.584Z,50.35
2018-03-04T03:57:50.102Z,49.67
2018-03-04T03:58:52.625Z,51.50
2018-03-04T03:59:55.163Z,50.83
2018-03-04T04:00:57.684Z,49.70
2018-03-04T04:02:00.233Z,50.22
2018-03-04T04:03:02.769Z,47.25
2018-03-04T04:04:05.332Z,45.63
2018-03-04T04:05:07.880Z,48.85
2018-03-04T04:06:10.426Z,49.45
2018-03-04T04:07:12.986Z,49.00
2018-03-04T04:08:15.512Z,48.63
2018-03-04T04:09:18.055Z,49.60
2018-03-04T04:10:20.614Z,46.78
2018-03-04T04:11:23.129Z,49.92
2018-03-04T04:12:25.723Z,47.70
2018-03-04T04:13:28.238Z,48.67
2018-03-04T04:14:30.759Z,48.03
2018-03-04T04:15:33.301Z,47.28
2018-03-04T04:16:35.831Z,49.35
2018-03-04T04:17:38.366Z,48.28
2018-03-04T04:18:40.972Z,47.90
2018-03-04T04:19:43.494Z,47.22
2018-03-04T04:20:46.039Z,48.45
2018-03-04T04:21:48.602Z,45.97
2018-03-04T04:22:51.160Z,48.53
2018-03-04T04:23:53.696Z,47.20
2018-03-04T04:24:56.242Z,45.60
2018-03-04T04:25:58.793Z,47.10
2018-03-04T04:27:01.329Z,49.17
2018-03-04T04:28:03.896Z,50.17
2018-03-04T04:29:06.427Z,47.88
2018-03-04T04:30:08.968Z,46.70
2018-03-04T04:31:11.486Z,47.30
2018-03-04T04:32:14.052Z,48.85
2018-03-04T04:33:16.605Z,46.42
2018-03-04T04:34:19.130Z,49.80
2018-03-04T04:35:21.656Z,47.72
2018-03-04T04:36:24.201Z,47.25
2018-03-04T04:37:26.732Z,46.80
2018-03-04T04:38:29.296Z,48.30
2018-03-04T04:39:31.832Z,49.28
2018-03-04T04:40:34.350Z,47.40
2018-03-04T04:41:36.900Z,46.58
2018-03-04T04:42:39.452Z,45.40
2018-03-04T04:43:42.016Z,46.15
2018-03-04T04:44:44.538Z,49.25
2018-03-04T04:45:47.068Z,48.17
2018-03-04T04:46:49.587Z,47.15
2018-03-04T04:47:52.120Z,47.97
2018-03-04T04:48:54.669Z,47.00
2018-03-04T04:49:57.204Z,46.67
2018-03-04T04:50:59.737Z,46.80
2018-03-04T04:52:02.305Z,48.17
2018-03-04T04:53:04.836Z,46.37
2018-03-04T04:54:07.369Z,48.63
2018-03-04T04:55:09.898Z,48.13
2018-03-04T04:56:12.414Z,46.15
2018-03-04T04:57:14.930Z,48.17
2018-03-04T04:58:17.464Z,48.45
2018-03-04T04:59:20.013Z,48.10
2018-03-04T05:00:22.530Z,47.95
2018-03-04T05:01:25.064Z,47.72
2018-03-04T05:02:27.600Z,45.03
2018-03-04T05:03:30.139Z,45.47
2018-03-04T05:04:32.673Z,46.83
2018-03-04T05:05:35.203Z,47.65
2018-03-04T05:06:37.745Z,47.90
2018-03-04T05:07:40.287Z,46.97
2018-03-04T05:08:42.819Z,49.90
2018-03-04T05:09:45.415Z,46.92
2018-03-04T05:10:47.934Z,47.42
2018-03-04T05:11:50.476Z,47.85
2018-03-04T05:12:53.007Z,47.08
2018-03-04T05:13:55.524Z,48.53
2018-03-04T05:14:58.078Z,48.70
2018-03-04T05:16:00.593Z,47.40
2018-03-04T05:17:03.117Z,47.25
2018-03-04T05:18:05.643Z,48.47
2018-03-04T05:19:08.158Z,47.17
2018-03-04T05:20:10.745Z,48.38
2018-03-04T05:21:13.270Z,47.80
2018-03-04T05:22:15.796Z,46.88
2018-03-04T05:23:18.369Z,48.92
2018-03-04T05:24:20.889Z,48.05
2018-03-04T05:25:23.440Z,46.25
2018-03-04T05:26:25.974Z,47.35
2018-03-04T05:27:28.503Z,47.03
2018-03-04T05:28:31.039Z,47.62
2018-03-04T05:29:33.604Z,48.53
2018-03-04T05:30:36.171Z,40.15
2018-03-04T05:31:38.709Z,46.95
2018-03-04T05:32:41.226Z,45.83
2018-03-04T05:33:43.764Z,44.42
2018-03-04T05:34:46.298Z,46.65
2018-03-04T05:35:48.873Z,46.53
2018-03-04T05:36:51.420Z,46.72
2018-03-04T05:37:53.934Z,47.47
2018-03-04T05:38:56.486Z,48.08
2018-03-04T05:39:59.014Z,49.13
2018-03-04T05:41:01.572Z,49.45
2018-03-04T05:42:04.108Z,46.37
2018-03-04T05:43:06.639Z,45.67
2018-03-04T05:44:09.192Z,45.08
2018-03-04T05:45:11.796Z,47.65
2018-03-04T05:46:14.357Z,47.17
2018-03-04T05:47:16.887Z,45.92
2018-03-04T05:48:19.428Z,44.25
2018-03-04T05:49:21.964Z,47.20
2018-03-04T05:50:24.496Z,46.47
2018-03-04T05:51:27.053Z,46.53
2018-03-04T05:52:29.570Z,50.40
2018-03-04T05:53:32.086Z,46.30
2018-03-04T05:54:34.619Z,47.72
2018-03-04T05:55:37.148Z,46.80
2018-03-04T05:56:39.685Z,48.38
2018-03-04T05:57:42.221Z,49.53
2018-03-04T05:58:44.769Z,48.83
2018-03-04T05:59:47.294Z,49.08
2018-03-04T06:00:49.831Z,47.50
2018-03-04T06:01:52.370Z,45.10
2018-03-04T06:02:54.912Z,48.10
2018-03-04T06:03:57.430Z,46.78
2018-03-04T06:04:59.967Z,49.35
2018-03-04T06:06:02.491Z,46.50
2018-03-04T06:07:05.026Z,45.95
2018-03-04T06:08:07.550Z,45.65
2018-03-04T06:09:10.084Z,46.95
2018-03-04T06:10:12.624Z,45.53
2018-03-04T06:11:15.147Z,49.03
2018-03-04T06:12:17.723Z,46.30
2018-03-04T06:13:20.229Z,49.70
2018-03-04T06:14:22.746Z,46.15
2018-03-04T06:15:25.270Z,48.40
2018-03-04T06:16:27.828Z,43.87
2018-03-04T06:17:30.378Z,48.38
2018-03-04T06:18:32.899Z,44.50
2018-03-04T06:19:35.418Z,43.97
2018-03-04T06:20:37.961Z,46.90
2018-03-04T06:21:40.516Z,44.85
2018-03-04T06:22:43.053Z,46.15
2018-03-04T06:23:45.566Z,46.15
2018-03-04T06:24:48.252Z,44.15
2018-03-04T06:25:50.793Z,46.40
2018-03-04T06:26:56.987Z,46.45
2018-03-04T06:28:20.408Z,45.35
2018-03-04T06:29:22.949Z,45.08
2018-03-04T06:30:25.469Z,44.80
2018-03-04T06:31:27.986Z,46.37
2018-03-04T06:32:30.516Z,46.53
2018-03-04T06:33:33.165Z,44.28
2018-03-04T06:34:35.685Z,44.22
2018-03-04T06:35:38.206Z,45.80
2018-03-04T06:36:40.776Z,47.58
2018-03-04T06:37:43.315Z,47.62
2018-03-04T06:38:45.866Z,45.60
2018-03-04T06:39:48.407Z,45.55
2018-03-04T06:40:51.011Z,45.50
2018-03-04T06:41:54.756Z,42.88
2018-03-04T06:42:57.291Z,45.08
2018-03-04T06:43:59.807Z,44.40
2018-03-04T06:45:02.326Z,40.10
2018-03-04T06:46:04.856Z,43.22
2018-03-04T06:47:07.391Z,39.33
2018-03-04T06:48:09.909Z,42.90
2018-03-04T06:49:12.446Z,38.97
2018-03-04T06:50:14.977Z,43.80
2018-03-04T06:51:17.502Z,40.58
2018-03-04T06:52:20.064Z,41.53
2018-03-04T06:53:22.601Z,39.67
2018-03-04T06:54:25.137Z,37.50
2018-03-04T06:55:27.693Z,41.63
2018-03-04T06:56:30.210Z,39.40
2018-03-04T06:57:32.744Z,42.22
2018-03-04T06:58:35.529Z,39.67
2018-03-04T06:59:38.073Z,40.25
2018-03-04T07:00:40.612Z,40.28
2018-03-04T07:01:43.146Z,38.45
2018-03-04T07:02:45.689Z,38.47
2018-03-04T07:03:48.209Z,40.38
2018-03-04T07:04:50.743Z,40.88
2018-03-04T07:05:53.262Z,42.25
2018-03-04T07:06:55.785Z,41.58
2018-03-04T07:07:58.305Z,41.13
2018-03-04T07:09:00.822Z,40.28
2018-03-04T07:10:03.338Z,40.88
2018-03-04T07:11:05.856Z,41.05
2018-03-04T07:12:08.374Z,38.53
2018-03-04T07:13:11.102Z,42.13
2018-03-04T07:14:13.618Z,41.95
2018-03-04T07:15:16.150Z,40.35
2018-03-04T07:16:18.883Z,40.08
2018-03-04T07:18:37.681Z,41.85
2018-03-04T07:19:40.476Z,37.83
2018-03-04T07:20:43.064Z,39.88
2018-03-04T07:21:45.814Z,40.17
2018-03-04T07:22:48.401Z,39.35
2018-03-04T07:23:50.934Z,38.55
2018-03-04T07:24:53.543Z,40.42
2018-03-04T07:25:56.146Z,39.40
2018-03-04T07:26:58.789Z,36.42
2018-03-04T07:28:01.320Z,38.20
2018-03-04T07:29:03.847Z,41.50
2018-03-04T07:30:06.396Z,36.60
2018-03-04T07:31:08.939Z,38.47
2018-03-04T07:32:11.472Z,38.03
2018-03-04T07:33:13.995Z,37.90
2018-03-04T07:34:16.533Z,37.55
2018-03-04T07:35:19.068Z,39.30
2018-03-04T07:36:21.603Z,39.45
2018-03-04T07:37:24.118Z,40.67
2018-03-04T07:38:26.646Z,37.60
2018-03-04T07:39:29.172Z,38.25
2018-03-04T07:40:31.686Z,38.97
2018-03-04T07:41:34.210Z,38.80
2018-03-04T07:42:36.740Z,39.10
2018-03-04T07:43:39.285Z,39.70
2018-03-04T07:44:41.798Z,36.95
2018-03-04T07:45:44.349Z,38.42
2018-03-04T07:46:46.915Z,39.90
2018-03-04T07:47:49.446Z,37.90
2018-03-04T07:48:51.970Z,41.05
2018-03-04T07:49:54.491Z,39.90
2018-03-04T07:50:57.002Z,34.97
2018-03-04T07:51:59.528Z,40.42
2018-03-04T07:53:02.074Z,40.38
2018-03-04T07:54:04.604Z,38.38
2018-03-04T07:55:07.121Z,40.20
2018-03-04T07:56:09.652Z,39.92
2018-03-04T07:57:12.162Z,38.78
2018-03-04T07:58:14.685Z,41.20
2018-03-04T07:59:17.263Z,40.60
2018-03-04T08:00:19.796Z,38.97
2018-03-04T08:01:22.321Z,38.40
2018-03-04T08:02:24.857Z,39.28
2018-03-04T08:03:27.391Z,38.78
2018-03-04T08:04:29.920Z,38.15
2018-03-04T08:05:32.481Z,39.78
2018-03-04T08:06:34.998Z,39.40
2018-03-04T08:07:37.653Z,39.67
2018-03-04T08:08:40.183Z,37.50
2018-03-04T08:09:42.714Z,38.53
2018-03-04T08:10:45.280Z,39.22
2018-03-04T08:11:47.814Z,37.42
2018-03-04T08:12:50.325Z,38.10
2018-03-04T08:13:52.841Z,41.20
2018-03-04T08:14:55.361Z,39.65
2018-03-04T08:15:57.877Z,35.90
2018-03-04T08:17:00.581Z,41.65
2018-03-04T08:18:03.221Z,40.40
2018-03-04T08:19:05.752Z,38.75
2018-03-04T08:20:08.266Z,37.20
2018-03-04T08:21:10.781Z,41.53
2018-03-04T08:22:13.294Z,37.75
2018-03-04T08:23:15.820Z,41.45
2018-03-04T08:24:30.160Z,37.50
2018-03-04T08:25:36.333Z,39.70
2018-03-04T08:26:50.886Z,40.45
2018-03-04T08:28:05.422Z,38.78
2018-03-04T08:29:07.980Z,37.10
2018-03-04T08:30:10.508Z,38.15
2018-03-04T08:31:13.036Z,33.60
2018-03-04T08:32:15.551Z,39.28
2018-03-04T08:33:18.108Z,39.63
2018-03-04T08:34:20.636Z,38.58
2018-03-04T08:35:23.168Z,37.25
2018-03-04T08:36:25.682Z,38.10
2018-03-04T08:37:28.202Z,37.55
2018-03-04T08:38:30.714Z,36.20
2018-03-04T08:39:33.322Z,37.53
2018-03-04T08:40:35.832Z,38.42
2018-03-04T08:41:38.372Z,38.53
2018-03-04T08:42:40.942Z,37.40
2018-03-04T08:43:43.469Z,36.65
2018-03-04T08:44:46.000Z,35.08
2018-03-04T08:45:48.509Z,37.22
2018-03-04T08:46:51.061Z,37.75
2018-03-04T08:47:53.616Z,38.20
2018-03-04T08:48:56.133Z,35.78
2018-03-04T08:49:58.688Z,36.13
2018-03-04T08:52:32.201Z,38.10
2018-03-04T08:53:34.751Z,35.55
2018-03-04T08:54:37.291Z,37.75
2018-03-04T08:55:39.798Z,38.38
2018-03-04T08:56:42.334Z,37.05
2018-03-04T08:57:44.842Z,36.40
2018-03-04T08:58:47.385Z,35.08
2018-03-04T08:59:49.902Z,35.55
2018-03-04T09:00:52.414Z,36.65
2018-03-04T09:01:54.940Z,34.67
2018-03-04T09:02:57.520Z,36.58
2018-03-04T09:04:00.083Z,35.90
2018-03-04T09:05:02.623Z,33.40
2018-03-04T09:06:05.157Z,35.58
2018-03-04T09:07:07.666Z,36.28
2018-03-04T09:08:10.218Z,36.03
2018-03-04T09:09:12.746Z,34.17
2018-03-04T09:10:15.283Z,33.85
2018-03-04T09:11:17.817Z,34.55
2018-03-04T09:12:20.350Z,34.45
2018-03-04T09:13:22.865Z,34.70
2018-03-04T09:14:25.398Z,33.90
2018-03-04T09:15:27.925Z,35.35
2018-03-04T09:16:30.478Z,34.45
2018-03-04T09:17:33.003Z,33.50
2018-03-04T09:18:35.558Z,35.88
2018-03-04T09:19:38.449Z,31.95
2018-03-04T09:20:40.976Z,34.97
2018-03-04T09:21:43.500Z,34.17
2018-03-04T09:22:46.086Z,35.28
2018-03-04T09:23:48.750Z,34.45
2018-03-04T09:24:51.296Z,35.30
2018-03-04T09:25:53.823Z,35.22
2018-03-04T09:26:56.349Z,33.45
2018-03-04T09:27:58.904Z,34.85
2018-03-04T09:29:01.433Z,32.90
2018-03-04T09:30:03.978Z,32.28
2018-03-04T09:31:06.556Z,34.80
2018-03-04T09:32:09.078Z,31.25
2018-03-04T09:33:11.621Z,32.75
2018-03-04T09:34:14.153Z,34.15
2018-03-04T09:35:16.663Z,34.05
2018-03-04T09:36:19.200Z,34.33
2018-03-04T09:37:21.721Z,34.80
2018-03-04T09:38:24.263Z,34.67
2018-03-04T09:39:26.910Z,35.25
2018-03-04T09:40:29.422Z,31.60
2018-03-04T09:41:31.974Z,33.17
2018-03-04T09:42:34.490Z,34.33
2018-03-04T09:43:37.006Z,35.28
2018-03-04T09:44:39.518Z,35.60
2018-03-04T09:45:47.533Z,35.22
2018-03-04T09:46:57.710Z,35.83
2018-03-04T09:48:00.631Z,33.78
2018-03-04T09:49:03.154Z,32.00
2018-03-04T09:50:05.680Z,34.38
2018-03-04T09:51:08.210Z,32.25
2018-03-04T09:52:10.735Z,34.40
2018-03-04T09:53:13.260Z,34.13
2018-03-04T09:54:15.804Z,33.30
2018-03-04T09:55:18.318Z,33.45
2018-03-04T09:56:20.838Z,33.97
2018-03-04T09:57:23.351Z,34.47
2018-03-04T09:58:25.877Z,33.95
2018-03-04T09:59:28.390Z,33.15
2018-03-04T10:00:30.902Z,32.42
2018-03-04T10:01:33.450Z,33.80
2018-03-04T10:02:35.961Z,32.88
2018-03-04T10:03:38.486Z,32.47
2018-03-04T10:04:40.999Z,32.58
2018-03-04T10:05:43.564Z,31.55
2018-03-04T10:06:46.088Z,32.47
2018-03-04T10:07:48.607Z,34.83
2018-03-04T10:08:51.121Z,34.42
2018-03-04T10:09:53.680Z,35.20
2018-03-04T10:10:56.195Z,33.63
2018-03-04T10:11:58.710Z,33.58
2018-03-04T10:13:01.229Z,31.95
2018-03-04T10:14:03.756Z,32.05
2018-03-04T10:15:06.308Z,32.55
2018-03-04T10:16:08.840Z,31.15
2018-03-04T10:17:11.364Z,32.53
2018-03-04T10:18:13.878Z,32.70
2018-03-04T10:19:16.430Z,33.88
2018-03-04T10:20:18.987Z,32.20
2018-03-04T10:21:21.516Z,33.42
2018-03-04T10:22:24.045Z,33.40
2018-03-04T10:23:26.580Z,30.75
2018-03-04T10:24:29.115Z,30.65
2018-03-04T10:25:31.675Z,31.70
2018-03-04T10:26:34.222Z,32.90
2018-03-04T10:27:36.752Z,29.75
2018-03-04T10:28:39.273Z,31.52
2018-03-04T10:29:41.791Z,31.90
2018-03-04T10:30:44.309Z,27.00
2018-03-04T10:31:46.837Z,29.75
2018-03-04T10:32:49.425Z,30.52
2018-03-04T10:33:51.955Z,31.27
2018-03-04T10:34:54.475Z,30.35
2018-03-04T10:35:57.012Z,30.67
2018-03-04T10:36:59.539Z,30.95
2018-03-04T10:38:02.073Z,30.85
2018-03-04T10:39:04.631Z,30.15
2018-03-04T10:40:07.146Z,30.77
2018-03-04T10:41:09.680Z,27.13
2018-03-04T10:42:12.208Z,28.30
2018-03-04T10:43:14.740Z,26.70
2018-03-04T10:44:17.258Z,28.62
2018-03-04T10:45:19.801Z,30.70
2018-03-04T10:46:22.390Z,29.02
2018-03-04T10:47:24.903Z,27.65
2018-03-04T10:48:27.440Z,30.17
2018-03-04T10:49:29.962Z,28.73
2018-03-04T10:50:32.496Z,29.10
2018-03-04T10:51:35.010Z,30.20
2018-03-04T10:52:37.540Z,30.65
2018-03-04T10:53:40.066Z,29.02
2018-03-04T10:54:42.586Z,30.83
2018-03-04T10:55:45.104Z,30.48
2018-03-04T10:56:47.639Z,28.50
2018-03-04T10:57:50.151Z,28.80
2018-03-04T10:58:52.688Z,28.20
2018-03-04T10:59:55.220Z,29.05
2018-03-04T11:00:57.751Z,30.15
2018-03-04T11:02:05.288Z,30.52
2018-03-04T11:03:07.813Z,29.25
2018-03-04T11:04:10.376Z,29.67
2018-03-04T11:05:12.885Z,29.25
2018-03-04T11:06:15.411Z,29.15
2018-03-04T11:07:18.004Z,29.70
2018-03-04T11:08:20.624Z,29.50
2018-03-04T11:09:23.156Z,31.48
2018-03-04T11:10:25.684Z,28.77
2018-03-04T11:11:28.420Z,30.23
2018-03-04T11:12:30.968Z,29.65
2018-03-04T11:13:33.487Z,29.48
2018-03-04T11:14:36.088Z,29.80
2018-03-04T11:15:38.614Z,30.77
2018-03-04T11:16:41.136Z,28.40
2018-03-04T11:17:43.736Z,27.45
2018-03-04T11:18:46.632Z,31.08
2018-03-04T11:19:49.185Z,28.90
2018-03-04T11:20:51.698Z,29.85
2018-03-04T11:21:54.227Z,29.33
2018-03-04T11:22:56.875Z,29.85
2018-03-04T11:23:59.423Z,30.67
2018-03-04T11:25:01.996Z,29.95
2018-03-04T11:26:04.522Z,27.37
2018-03-04T11:27:07.055Z,27.85
2018-03-04T11:28:09.597Z,29.33
2018-03-04T11:29:12.111Z,28.98
2018-03-04T11:30:14.637Z,29.80
2018-03-04T11:31:17.200Z,29.67
2018-03-04T11:32:19.813Z,27.50
2018-03-04T11:33:22.359Z,26.35
2018-03-04T11:34:24.884Z,26.65
2018-03-04T11:35:27.425Z,27.40
2018-03-04T11:36:29.942Z,26.67
2018-03-04T11:37:32.462Z,27.00
2018-03-04T11:38:35.018Z,26.60
2018-03-04T11:39:37.535Z,26.65
2018-03-04T11:40:40.064Z,27.17
2018-03-04T11:41:42.578Z,26.80
2018-03-04T11:42:45.105Z,26.12
2018-03-04T11:43:47.666Z,27.50
2018-03-04T11:44:50.200Z,26.05
2018-03-04T11:45:52.718Z,26.10
2018-03-04T11:46:55.246Z,27.85
2018-03-04T11:47:57.759Z,24.63
2018-03-04T11:49:00.294Z,29.00
2018-03-04T11:50:02.826Z,27.92
2018-03-04T11:51:05.386Z,25.00
2018-03-04T11:52:07.906Z,26.75
2018-03-04T11:53:10.436Z,25.88
2018-03-04T11:54:13.037Z,26.23
2018-03-04T11:55:15.541Z,27.90
2018-03-04T11:56:18.058Z,28.08
2018-03-04T11:57:20.633Z,27.77
2018-03-04T11:58:23.176Z,25.60
2018-03-04T11:59:25.795Z,28.48
2018-03-04T12:00:28.308Z,27.02
2018-03-04T12:01:30.833Z,25.73
2018-03-04T12:02:33.395Z,26.75
2018-03-04T12:03:35.948Z,25.90
2018-03-04T12:04:38.532Z,26.45
2018-03-04T12:05:41.064Z,26.48
2018-03-04T12:06:43.623Z,25.48
2018-03-04T12:07:46.231Z,27.45
2018-03-04T12:08:48.768Z,26.02
2018-03-04T12:09:51.312Z,26.70
2018-03-04T12:10:53.851Z,25.75
2018-03-04T12:11:56.395Z,26.90
2018-03-04T12:12:58.937Z,26.08
2018-03-04T12:14:01.449Z,26.45
2018-03-04T12:15:04.017Z,27.13
2018-03-04T12:16:06.531Z,26.70
2018-03-04T12:17:09.084Z,25.35
2018-03-04T12:18:11.684Z,25.77
2018-03-04T12:19:14.207Z,26.50
2018-03-04T12:20:16.753Z,25.80
2018-03-04T12:21:19.345Z,24.73
2018-03-04T12:22:21.881Z,25.75
2018-03-04T12:23:24.394Z,24.70
2018-03-04T12:24:26.930Z,24.73
2018-03-04T12:25:29.474Z,25.08
2018-03-04T12:26:31.999Z,24.87
2018-03-04T12:27:34.589Z,25.45
2018-03-04T12:28:37.386Z,25.62
2018-03-04T12:29:39.916Z,26.05
2018-03-04T12:30:42.458Z,25.08
2018-03-04T12:31:44.983Z,23.73
2018-03-04T12:32:47.554Z,24.95
2018-03-04T12:33:50.090Z,26.20
2018-03-04T12:34:52.607Z,24.12
2018-03-04T12:35:55.166Z,24.55
2018-03-04T12:36:57.734Z,24.23
2018-03-04T12:38:00.249Z,24.23
2018-03-04T12:39:02.803Z,25.55
2018-03-04T12:40:05.340Z,24.83
2018-03-04T12:41:07.882Z,24.42
2018-03-04T12:42:10.434Z,22.92
2018-03-04T12:43:12.945Z,24.23
2018-03-04T12:44:15.479Z,23.48
2018-03-04T12:45:18.048Z,22.55
2018-03-04T12:46:20.597Z,22.50
2018-03-04T12:47:23.320Z,23.70
2018-03-04T12:48:25.844Z,20.25
2018-03-04T12:49:28.366Z,20.95
2018-03-04T12:50:30.878Z,19.48
2018-03-04T12:51:33.424Z,20.30
2018-03-04T12:52:35.955Z,20.42
2018-03-04T12:53:38.488Z,19.20
2018-03-04T12:54:41.058Z,19.92
2018-03-04T12:55:43.605Z,20.48
2018-03-04T12:56:46.260Z,20.30
2018-03-04T12:57:48.789Z,19.67
2018-03-04T12:58:51.330Z,18.75
2018-03-04T12:59:53.847Z,18.20
2018-03-04T13:00:56.380Z,20.05
2018-03-04T13:01:58.930Z,19.98
2018-03-04T13:03:01.450Z,20.80
2018-03-04T13:04:03.996Z,20.30
2018-03-04T13:05:06.535Z,20.25
2018-03-04T13:06:09.070Z,19.70
2018-03-04T13:07:12.488Z,21.35
2018-03-04T13:08:15.077Z,20.33
2018-03-04T13:09:17.626Z,19.20
2018-03-04T13:10:20.179Z,17.05
2018-03-04T13:11:22.708Z,16.27
2018-03-04T13:12:25.256Z,17.50
2018-03-04T13:13:27.785Z,17.25
2018-03-04T13:14:30.395Z,17.00
2018-03-04T13:15:32.924Z,15.80
2018-03-04T13:16:35.468Z,17.60
2018-03-04T13:17:38.024Z,17.50
2018-03-04T13:18:40.555Z,16.77
2018-03-04T13:19:43.086Z,17.37
2018-03-04T13:20:45.636Z,17.87
2018-03-04T13:21:48.150Z,17.27
2018-03-04T13:22:50.704Z,17.92
2018-03-04T13:23:53.214Z,16.45
2018-03-04T13:24:55.731Z,18.33
2018-03-04T13:25:58.246Z,16.27
2018-03-04T13:27:00.909Z,17.73
2018-03-04T13:28:03.472Z,18.37
2018-03-04T13:29:06.047Z,17.10